createdAt,value
2018-06-14T00:01:34.471Z,13.10
2018-06-14T00:04:03.244Z,13.20
2018-06-14T00:06:32.053Z,13.10
2018-06-14T00:09:00.818Z,13.10
2018-06-14T00:11:29.593Z,13.10
2018-06-14T00:13:58.460Z,13.10
2018-06-14T00:16:27.313Z,13.10
2018-06-14T00:18:56.156Z,13.10
2018-06-14T00:21:24.956Z,13.10
2018-06-14T00:23:53.865Z,13.10
2018-06-14T00:26:22.631Z,13.10
2018-06-14T00:28:51.429Z,13.00
2018-06-14T00:31:20.214Z,13.00
2018-06-14T00:33:48.992Z,13.10
2018-06-14T00:36:17.815Z,13.10
2018-06-14T00:38:46.592Z,13.10
2018-06-14T00:41:15.351Z,13.10
2018-06-14T00:43:44.168Z,13.10
2018-06-14T00:46:12.954Z,13.10
2018-06-14T00:48:41.959Z,13.20
2018-06-14T00:51:10.749Z,13.20
2018-06-14T00:53:39.636Z,13.10
2018-06-14T00:56:08.447Z,13.10
2018-06-14T00:58:37.255Z,13.10
2018-06-14T01:01:06.082Z,13.00
2018-06-14T01:03:34.868Z,13.10
2018-06-14T01:06:03.627Z,13.00
2018-06-14T01:08:32.420Z,13.00
2018-06-14T01:11:01.209Z,12.90
2018-06-14T01:13:30.010Z,12.90
2018-06-14T01:15:58.784Z,12.90
2018-06-14T01:18:27.649Z,13.00
2018-06-14T01:20:56.486Z,13.10
2018-06-14T01:23:26.164Z,13.10
2018-06-14T01:25:54.920Z,13.10
2018-06-14T01:28:23.712Z,13.10
2018-06-14T01:30:52.530Z,13.00
2018-06-14T01:33:21.330Z,13.10
2018-06-14T01:35:50.236Z,13.00
2018-06-14T01:38:24.038Z,13.10
2018-06-14T01:40:53.012Z,13.10
2018-06-14T01:43:22.309Z,13.10
2018-06-14T01:45:51.117Z,13.00
2018-06-14T01:48:19.924Z,13.10
2018-06-14T01:50:48.739Z,13.00
2018-06-14T01:53:17.504Z,13.00
2018-06-14T01:55:46.326Z,13.00
2018-06-14T01:58:15.096Z,13.00
2018-06-14T02:00:43.863Z,13.00
2018-06-14T02:03:12.746Z,12.90
2018-06-14T02:05:41.520Z,13.00
2018-06-14T02:08:11.245Z,13.10
2018-06-14T02:10:40.033Z,13.10
2018-06-14T02:13:08.810Z,13.00
2018-06-14T02:15:37.620Z,12.90
2018-06-14T02:18:06.404Z,12.90
2018-06-14T02:20:35.266Z,12.90
2018-06-14T02:23:04.055Z,12.90
2018-06-14T02:25:32.863Z,13.00
2018-06-14T02:28:01.657Z,12.90
2018-06-14T02:30:30.430Z,12.90
2018-06-14T02:32:59.261Z,12.90
2018-06-14T02:35:28.082Z,12.90
2018-06-14T02:37:56.859Z,12.90
2018-06-14T02:40:25.632Z,12.90
2018-06-14T02:42:54.405Z,12.90
2018-06-14T02:45:23.221Z,12.90
2018-06-14T02:47:51.997Z,12.90
2018-06-14T02:50:20.797Z,12.90
2018-06-14T02:52:49.580Z,12.90
2018-06-14T02:55:18.372Z,12.90
2018-06-14T02:57:47.146Z,12.90
2018-06-14T03:00:15.933Z,12.90
2018-06-14T03:02:44.741Z,12.90
2018-06-14T03:05:13.531Z,12.90
2018-06-14T03:07:42.312Z,12.90
2018-06-14T03:10:11.072Z,12.90
2018-06-14T03:12:39.868Z,12.90
2018-06-14T03:15:08.696Z,12.90
2018-06-14T03:17:37.485Z,12.90
2018-06-14T03:20:06.380Z,12.90
2018-06-14T03:22:35.171Z,12.90
2018-06-14T03:25:03.968Z,12.90
2018-06-14T03:27:32.740Z,12.90
2018-06-14T03:30:01.557Z,12.90
2018-06-14T03:32:30.363Z,12.90
2018-06-14T03:34:59.152Z,12.90
2018-06-14T03:37:28.028Z,12.90
2018-06-14T03:39:56.768Z,12.90
2018-06-14T03:42:25.561Z,12.90
2018-06-14T03:44:54.324Z,12.90
2018-06-14T03:47:23.111Z,12.90
2018-06-14T03:49:51.900Z,12.90
2018-06-14T03:52:20.688Z,12.90
2018-06-14T03:54:49.553Z,12.80
2018-06-14T03:57:18.338Z,12.80
2018-06-14T03:59:47.132Z,12.80
2018-06-14T04:02:15.908Z,12.80
2018-06-14T04:04:44.696Z,12.80
2018-06-14T04:07:13.503Z,12.80
2018-06-14T04:12:10.778Z,12.80
2018-06-14T04:14:39.927Z,12.80
2018-06-14T04:17:08.756Z,12.80
2018-06-14T04:19:37.544Z,12.80
2018-06-14T04:22:06.371Z,12.90
2018-06-14T04:24:35.247Z,12.80
2018-06-14T04:27:04.094Z,12.90
2018-06-14T04:29:32.999Z,12.90
2018-06-14T04:32:01.898Z,13.00
2018-06-14T04:34:30.832Z,13.00
2018-06-14T04:36:59.915Z,13.10
2018-06-14T04:39:29.773Z,13.10
2018-06-14T04:42:00.671Z,13.00
2018-06-14T04:44:29.475Z,13.00
2018-06-14T04:46:58.350Z,13.10
2018-06-14T04:49:35.164Z,13.10
2018-06-14T04:52:03.987Z,13.20
2018-06-14T04:54:32.820Z,13.20
2018-06-14T04:57:01.657Z,13.30
2018-06-14T04:59:30.452Z,13.30
2018-06-14T05:01:59.273Z,13.30
2018-06-14T05:04:28.117Z,13.30
2018-06-14T05:06:56.931Z,13.30
2018-06-14T05:09:25.706Z,13.30
2018-06-14T05:11:54.524Z,13.20
2018-06-14T05:14:23.347Z,13.30
2018-06-14T05:16:52.140Z,13.30
2018-06-14T05:19:20.956Z,13.40
2018-06-14T05:21:49.760Z,13.40
2018-06-14T05:24:18.549Z,13.40
2018-06-14T05:26:47.321Z,13.40
2018-06-14T05:29:16.139Z,13.40
2018-06-14T05:31:45.045Z,13.50
2018-06-14T05:34:13.824Z,13.50
2018-06-14T05:36:42.909Z,13.60
2018-06-14T05:39:12.971Z,13.70
2018-06-14T05:41:42.424Z,13.80
2018-06-14T05:44:11.874Z,13.70
2018-06-14T05:46:41.538Z,13.80
2018-06-14T05:49:11.149Z,13.80
2018-06-14T05:51:40.459Z,13.80
2018-06-14T05:54:09.847Z,13.80
2018-06-14T05:56:40.196Z,13.90
2018-06-14T05:59:09.616Z,13.90
2018-06-14T06:01:38.969Z,13.90
2018-06-14T06:04:08.277Z,14.00
2018-06-14T06:06:37.750Z,14.00
2018-06-14T06:09:09.402Z,14.00
2018-06-14T06:11:40.013Z,14.00
2018-06-14T06:14:09.216Z,14.10
2018-06-14T06:16:38.333Z,14.10
2018-06-14T06:21:36.455Z,14.30
2018-06-14T06:24:05.909Z,14.40
2018-06-14T06:26:35.291Z,14.40
2018-06-14T06:29:04.498Z,14.40
2018-06-14T06:31:33.800Z,14.30
2018-06-14T06:34:03.198Z,14.40
2018-06-14T06:36:34.027Z,14.50
2018-06-14T06:39:03.584Z,14.60
2018-06-14T06:41:34.641Z,14.60
2018-06-14T06:44:03.601Z,14.60
2018-06-14T06:46:32.413Z,14.70
2018-06-14T06:49:01.269Z,14.80
2018-06-14T06:51:30.060Z,14.80
2018-06-14T06:53:58.900Z,14.90
2018-06-14T06:56:27.972Z,15.00
2018-06-14T06:58:56.856Z,15.00
2018-06-14T07:01:25.677Z,15.00
2018-06-14T07:03:54.534Z,15.20
2018-06-14T07:06:23.448Z,15.20
2018-06-14T07:08:52.316Z,15.30
2018-06-14T07:11:21.163Z,15.30
2018-06-14T07:13:50.668Z,15.40
2018-06-14T07:16:19.877Z,15.40
2018-06-14T07:18:49.420Z,15.50
2018-06-14T07:21:18.874Z,15.60
2018-06-14T07:23:48.067Z,15.70
2018-06-14T07:26:17.533Z,15.60
2018-06-14T07:28:47.252Z,15.50
2018-06-14T07:31:16.613Z,15.50
2018-06-14T07:33:45.908Z,15.60
2018-06-14T07:38:47.791Z,15.70
2018-06-14T07:41:17.350Z,15.60
2018-06-14T07:43:46.759Z,15.60
2018-06-14T07:46:16.169Z,15.50
2018-06-14T07:48:45.614Z,15.50
2018-06-14T07:51:14.734Z,15.70
2018-06-14T07:53:44.067Z,15.70
2018-06-14T07:56:14.434Z,15.70
2018-06-14T07:58:43.637Z,15.70
2018-06-14T08:01:12.953Z,15.90
2018-06-14T08:03:42.409Z,15.70
2018-06-14T08:06:11.505Z,15.80
2018-06-14T08:08:48.788Z,15.80
2018-06-14T08:11:17.671Z,15.90
2018-06-14T08:13:46.980Z,16.00
2018-06-14T08:16:15.773Z,16.10
2018-06-14T08:18:44.627Z,16.10
2018-06-14T08:21:13.550Z,16.10
2018-06-14T08:23:42.511Z,16.20
2018-06-14T08:26:13.343Z,16.10
2018-06-14T08:28:42.157Z,16.30
2018-06-14T08:31:11.004Z,16.50
2018-06-14T08:33:39.912Z,16.40
2018-06-14T08:36:08.737Z,16.30
2018-06-14T08:38:37.616Z,16.30
2018-06-14T08:41:06.529Z,16.50
2018-06-14T08:43:35.372Z,16.50
2018-06-14T08:46:05.309Z,16.50
2018-06-14T08:48:34.149Z,16.50
2018-06-14T08:51:02.995Z,16.60
2018-06-14T08:56:00.303Z,16.40
2018-06-14T08:58:29.139Z,16.30
2018-06-14T09:00:57.973Z,16.50
2018-06-14T09:03:26.834Z,16.70
2018-06-14T09:11:09.172Z,16.80
2018-06-14T09:13:40.078Z,16.80
2018-06-14T09:16:08.932Z,17.00
2018-06-14T09:18:37.725Z,16.80
2018-06-14T09:21:06.640Z,16.60
2018-06-14T09:23:35.464Z,16.70
2018-06-14T09:26:04.492Z,17.10
2018-06-14T09:28:33.374Z,17.10
2018-06-14T09:31:02.381Z,17.10
2018-06-14T09:33:31.148Z,17.10
2018-06-14T09:36:00.109Z,17.20
2018-06-14T09:38:29.231Z,17.10
2018-06-14T09:40:58.199Z,17.00
2018-06-14T09:43:27.019Z,16.90
2018-06-14T09:45:55.928Z,16.90
2018-06-14T09:48:24.772Z,16.90
2018-06-14T09:50:53.649Z,17.10
2018-06-14T09:53:22.495Z,17.40
2018-06-14T09:56:03.051Z,17.50
2018-06-14T09:58:31.869Z,17.70
2018-06-14T10:01:00.712Z,17.50
2018-06-14T10:03:30.254Z,17.30
2018-06-14T10:05:59.672Z,17.30
2018-06-14T10:08:28.485Z,17.40
2018-06-14T10:10:57.323Z,17.50
2018-06-14T10:13:26.175Z,17.60
2018-06-14T10:18:24.211Z,18.00
2018-06-14T10:20:53.322Z,18.00
2018-06-14T10:23:22.139Z,17.90
2018-06-14T10:25:51.005Z,17.90
2018-06-14T10:28:19.882Z,17.90
2018-06-14T10:30:48.751Z,17.90
2018-06-14T10:33:17.632Z,17.90
2018-06-14T10:35:46.593Z,17.80
2018-06-14T10:38:15.461Z,18.00
2018-06-14T10:40:45.641Z,18.10
2018-06-14T10:43:14.542Z,18.20
2018-06-14T10:45:43.544Z,18.50
2018-06-14T10:48:12.462Z,18.50
2018-06-14T10:50:41.488Z,18.20
2018-06-14T10:55:38.908Z,18.70
2018-06-14T10:58:07.836Z,19.20
2018-06-14T11:00:36.736Z,19.40
2018-06-14T11:03:05.661Z,19.60
2018-06-14T11:05:34.815Z,19.60
2018-06-14T11:08:03.647Z,19.80
2018-06-14T11:10:33.002Z,19.90
2018-06-14T11:13:01.887Z,20.20
2018-06-14T11:15:30.744Z,20.20
2018-06-14T11:21:22.752Z,20.50
2018-06-14T11:23:52.184Z,21.20
2018-06-14T11:26:28.623Z,21.40
2018-06-14T11:28:58.619Z,21.90
2018-06-14T11:31:27.465Z,21.80
2018-06-14T11:33:56.600Z,22.00
2018-06-14T11:36:26.338Z,22.10
2018-06-14T11:38:56.848Z,22.20
2018-06-14T11:41:28.174Z,22.60
2018-06-14T11:43:57.200Z,22.70
2018-06-14T11:46:26.047Z,23.00
2018-06-14T11:48:54.901Z,23.10
2018-06-14T11:51:23.751Z,22.90
2018-06-14T11:53:52.610Z,22.80
2018-06-14T11:56:21.556Z,23.20
2018-06-14T11:58:50.443Z,23.00
2018-06-14T12:01:22.235Z,23.10
2018-06-14T12:03:51.580Z,23.10
2018-06-14T12:06:21.484Z,23.50
2018-06-14T12:08:50.777Z,23.70
2018-06-14T12:11:19.634Z,23.80
2018-06-14T12:13:48.542Z,22.90
2018-06-14T12:16:17.483Z,23.20
2018-06-14T12:18:46.376Z,23.60
2018-06-14T12:21:15.184Z,24.00
2018-06-14T12:23:44.113Z,23.50
2018-06-14T12:26:12.956Z,23.60
2018-06-14T12:28:41.817Z,23.80
2018-06-14T12:31:10.658Z,23.40
2018-06-14T12:33:39.632Z,23.20
2018-06-14T12:36:08.511Z,23.40
2018-06-14T12:38:37.448Z,23.90
2018-06-14T12:41:06.533Z,23.80
2018-06-14T12:43:35.514Z,23.50
2018-06-14T12:46:04.362Z,23.80
2018-06-14T12:48:33.266Z,24.00
2018-06-14T12:51:02.082Z,23.70
2018-06-14T12:53:31.805Z,23.20
2018-06-14T12:56:00.775Z,22.10
2018-06-14T12:58:29.706Z,22.00
2018-06-14T13:00:58.517Z,21.60
2018-06-14T13:03:27.421Z,21.00
2018-06-14T13:05:56.257Z,21.20
2018-06-14T13:08:25.067Z,21.40
2018-06-14T13:10:53.919Z,22.00
2018-06-14T13:13:22.753Z,22.60
2018-06-14T13:15:51.769Z,23.30
2018-06-14T13:18:20.533Z,23.50
2018-06-14T13:20:49.342Z,23.90
2018-06-14T13:23:18.165Z,24.00
2018-06-14T13:25:47.017Z,23.90
2018-06-14T13:28:15.830Z,23.80
2018-06-14T13:30:44.660Z,23.80
2018-06-14T13:33:13.481Z,23.80
2018-06-14T13:35:42.271Z,24.40
2018-06-14T13:38:11.073Z,24.40
2018-06-14T13:40:39.928Z,24.10
2018-06-14T13:43:08.720Z,23.80
2018-06-14T13:48:05.945Z,24.10
2018-06-14T13:50:34.756Z,24.60
2018-06-14T13:53:03.603Z,24.40
2018-06-14T13:55:32.488Z,25.00
2018-06-14T13:58:01.283Z,25.20
2018-06-14T14:00:30.100Z,25.30
2018-06-14T14:02:58.914Z,25.60
2018-06-14T14:05:27.711Z,25.80
2018-06-14T14:07:56.528Z,25.90
2018-06-14T14:10:25.325Z,25.70
2018-06-14T14:12:54.149Z,25.30
2018-06-14T14:15:28.532Z,25.10
2018-06-14T14:18:02.970Z,24.30
2018-06-14T14:20:31.659Z,23.90
2018-06-14T14:23:00.460Z,23.90
2018-06-14T14:25:29.232Z,24.10
2018-06-14T14:27:58.126Z,24.00
2018-06-14T14:30:27.008Z,23.90
2018-06-14T14:32:55.800Z,23.80
2018-06-14T14:35:24.656Z,23.60
2018-06-14T14:37:53.477Z,23.30
2018-06-14T14:40:22.256Z,23.00
2018-06-14T14:42:51.064Z,23.00
2018-06-14T14:45:19.875Z,23.00
2018-06-14T14:47:48.804Z,23.30
2018-06-14T14:50:17.610Z,23.40
2018-06-14T14:52:46.662Z,22.80
2018-06-14T14:55:21.977Z,22.30
2018-06-14T14:57:50.727Z,22.20
2018-06-14T15:00:19.490Z,21.90
2018-06-14T15:05:16.803Z,22.10
2018-06-14T15:07:45.581Z,22.00
2018-06-14T15:10:14.368Z,21.90
2018-06-14T15:12:43.236Z,21.90
2018-06-14T15:15:12.038Z,21.70
2018-06-14T15:17:40.813Z,21.70
2018-06-14T15:20:09.592Z,21.90
2018-06-14T15:22:38.376Z,21.80
2018-06-14T15:25:07.188Z,21.80
2018-06-14T15:27:35.987Z,22.00
2018-06-14T15:30:04.764Z,21.80
2018-06-14T15:32:33.538Z,21.80
2018-06-14T15:35:02.336Z,21.80
2018-06-14T15:37:31.085Z,22.00
2018-06-14T15:39:59.865Z,22.30
2018-06-14T15:42:28.628Z,22.80
2018-06-14T15:44:57.640Z,23.10
2018-06-14T15:47:26.582Z,23.00
2018-06-14T15:49:55.476Z,22.80
2018-06-14T15:52:24.405Z,22.80
2018-06-14T15:55:04.520Z,22.70
2018-06-14T15:57:33.296Z,22.80
2018-06-14T16:00:02.116Z,23.10
2018-06-14T16:02:30.912Z,23.40
2018-06-14T16:05:00.776Z,23.50
2018-06-14T16:07:29.574Z,23.40
2018-06-14T16:12:26.804Z,23.00
2018-06-14T16:14:55.596Z,23.20
2018-06-14T16:17:24.385Z,23.50
2018-06-14T16:19:53.145Z,23.50
2018-06-14T16:22:21.909Z,23.60
2018-06-14T16:24:52.741Z,23.80
2018-06-14T16:27:21.507Z,23.80
2018-06-14T16:29:50.367Z,23.80
2018-06-14T16:32:19.569Z,23.50
2018-06-14T16:34:49.428Z,23.30
2018-06-14T16:37:18.244Z,23.10
2018-06-14T16:39:47.045Z,23.40
2018-06-14T16:42:15.832Z,23.50
2018-06-14T16:44:44.765Z,23.40
2018-06-14T16:47:13.794Z,23.50
2018-06-14T16:49:42.567Z,23.50
2018-06-14T16:52:11.567Z,22.90
2018-06-14T16:54:40.365Z,23.00
2018-06-14T16:57:09.711Z,23.10
2018-06-14T16:59:39.205Z,22.90
2018-06-14T17:02:07.992Z,22.80
2018-06-14T17:04:38.217Z,22.70
2018-06-14T17:07:07.040Z,22.60
2018-06-14T17:09:35.903Z,22.60
2018-06-14T17:12:04.716Z,22.40
2018-06-14T17:14:33.488Z,22.30
2018-06-14T17:17:02.260Z,22.10
2018-06-14T17:19:31.012Z,21.80
2018-06-14T17:21:59.818Z,21.90
2018-06-14T17:24:28.596Z,21.70
2018-06-14T17:26:57.537Z,21.60
2018-06-14T17:29:26.413Z,21.40
2018-06-14T17:31:55.172Z,21.30
2018-06-14T17:34:23.959Z,21.20
2018-06-14T17:36:53.020Z,21.10
2018-06-14T17:39:21.880Z,21.00
2018-06-14T17:41:50.651Z,21.00
2018-06-14T17:44:19.487Z,21.00
2018-06-14T17:46:48.285Z,21.00
2018-06-14T17:49:17.139Z,21.10
2018-06-14T17:51:45.928Z,20.90
2018-06-14T17:54:14.701Z,20.90
2018-06-14T17:56:43.857Z,20.70
2018-06-14T17:59:15.181Z,20.60
2018-06-14T18:01:43.953Z,20.50
2018-06-14T18:04:12.757Z,20.50
2018-06-14T18:06:41.548Z,20.40
2018-06-14T18:09:10.700Z,20.30
2018-06-14T18:11:39.500Z,20.30
2018-06-14T18:14:08.296Z,20.10
2018-06-14T18:16:37.145Z,20.00
2018-06-14T18:19:05.985Z,19.90
2018-06-14T18:21:34.794Z,19.60
2018-06-14T18:24:03.566Z,19.50
2018-06-14T18:26:32.461Z,19.40
2018-06-14T18:29:01.245Z,19.30
2018-06-14T18:31:30.048Z,19.20
2018-06-14T18:33:59.964Z,19.00
2018-06-14T18:36:28.808Z,18.80
2018-06-14T18:38:57.719Z,18.70
2018-06-14T18:41:26.624Z,18.60
2018-06-14T18:43:55.396Z,18.50
2018-06-14T18:46:24.303Z,18.40
2018-06-14T18:48:53.159Z,18.30
2018-06-14T18:51:21.951Z,18.20
2018-06-14T18:53:50.737Z,18.10
2018-06-14T18:56:19.556Z,18.00
2018-06-14T18:58:48.425Z,17.90
2018-06-14T19:01:17.495Z,17.90
2018-06-14T19:03:46.300Z,17.70
2018-06-14T19:06:15.116Z,17.50
2018-06-14T19:08:43.925Z,17.50
2018-06-14T19:11:12.720Z,17.40
2018-06-14T19:13:41.611Z,17.30
2018-06-14T19:16:10.438Z,17.20
2018-06-14T19:18:39.366Z,17.20
2018-06-14T19:21:08.278Z,17.10
2018-06-14T19:23:37.368Z,17.20
2018-06-14T19:26:07.466Z,17.30
2018-06-14T19:28:37.628Z,17.20
2018-06-14T19:31:06.561Z,17.10
2018-06-14T19:33:35.471Z,16.90
2018-06-14T19:36:04.560Z,16.80
2018-06-14T19:38:33.422Z,16.80
2018-06-14T19:41:02.341Z,16.70
2018-06-14T19:43:31.239Z,16.60
2018-06-14T19:46:00.062Z,16.50
2018-06-14T19:48:28.930Z,16.40
2018-06-14T19:50:57.782Z,16.50
2018-06-14T19:53:26.613Z,16.50
2018-06-14T19:55:55.819Z,16.50
2018-06-14T19:58:24.729Z,16.70
2018-06-14T20:00:53.666Z,16.60
2018-06-14T20:03:23.084Z,16.60
2018-06-14T20:05:51.932Z,16.50
2018-06-14T20:08:21.896Z,16.40
2018-06-14T20:10:52.493Z,16.30
2018-06-14T20:13:21.332Z,16.10
2018-06-14T20:15:51.240Z,16.00
2018-06-14T20:18:20.821Z,15.90
2018-06-14T20:20:49.751Z,15.70
2018-06-14T20:23:18.544Z,15.90
2018-06-14T20:25:47.321Z,15.80
2018-06-14T20:28:16.327Z,15.60
2018-06-14T20:30:45.176Z,15.50
2018-06-14T20:33:13.968Z,15.60
2018-06-14T20:35:42.788Z,15.60
2018-06-14T20:38:11.677Z,15.50
2018-06-14T20:40:40.532Z,15.40
2018-06-14T20:43:09.362Z,15.30
2018-06-14T20:45:38.364Z,15.20
2018-06-14T20:48:09.716Z,15.10
2018-06-14T20:50:38.793Z,15.10
2018-06-14T20:53:07.653Z,15.10
2018-06-14T20:55:36.478Z,15.00
2018-06-14T20:58:05.282Z,14.90
2018-06-14T21:00:34.158Z,15.00
2018-06-14T21:03:02.950Z,14.90
2018-06-14T21:05:31.936Z,14.90
2018-06-14T21:08:01.222Z,14.90
2018-06-14T21:10:30.434Z,15.00
2018-06-14T21:12:59.332Z,15.00
2018-06-14T21:15:28.298Z,14.90
2018-06-14T21:17:57.514Z,14.70
2018-06-14T21:20:26.649Z,14.70
2018-06-14T21:22:55.656Z,14.60
2018-06-14T21:25:24.724Z,14.60
2018-06-14T21:27:53.847Z,14.40
2018-06-14T21:30:22.926Z,14.40
2018-06-14T21:32:52.137Z,14.50
2018-06-14T21:35:21.806Z,14.40
2018-06-14T21:37:53.127Z,14.40
2018-06-14T21:40:22.119Z,14.40
2018-06-14T21:42:51.095Z,14.40
2018-06-14T21:45:20.019Z,14.30
2018-06-14T21:47:49.402Z,14.30
2018-06-14T21:50:18.580Z,14.30
2018-06-14T21:52:47.681Z,14.30
2018-06-14T21:55:16.697Z,14.10
2018-06-14T21:57:45.942Z,14.10
2018-06-14T22:02:48.947Z,14.00
2018-06-14T22:05:18.399Z,13.90
2018-06-14T22:07:47.421Z,13.80
2018-06-14T22:10:16.632Z,13.70
2018-06-14T22:12:45.960Z,13.70
2018-06-14T22:15:15.245Z,13.80
2018-06-14T22:17:44.081Z,13.80
2018-06-14T22:20:13.077Z,13.80
2018-06-14T22:22:41.997Z,13.80
2018-06-14T22:25:10.787Z,13.80
2018-06-14T22:27:39.616Z,13.80
2018-06-14T22:30:08.740Z,13.80
2018-06-14T22:32:38.467Z,13.80
2018-06-14T22:35:22.419Z,13.80
2018-06-14T22:40:19.679Z,13.90
2018-06-14T22:42:48.561Z,13.80
2018-06-14T22:45:17.504Z,13.70
2018-06-14T22:47:46.299Z,13.80
2018-06-14T22:50:15.638Z,13.90
2018-06-14T22:52:53.849Z,13.90
2018-06-14T22:55:23.604Z,14.10
2018-06-14T22:57:52.396Z,14.10
2018-06-14T23:01:29.912Z,14.10
2018-06-14T23:04:00.176Z,14.10
2018-06-14T23:06:29.261Z,14.10
2018-06-14T23:08:59.096Z,14.20
2018-06-14T23:11:28.344Z,14.10
2018-06-14T23:13:57.472Z,14.10
2018-06-14T23:16:26.428Z,14.10
2018-06-14T23:18:55.529Z,14.10
2018-06-14T23:21:24.684Z,14.10
2018-06-14T23:23:53.608Z,14.20
2018-06-14T23:26:23.018Z,14.10
2018-06-14T23:28:52.155Z,14.10
2018-06-14T23:31:21.205Z,14.10
2018-06-14T23:33:50.290Z,14.10
2018-06-14T23:36:19.521Z,14.10
2018-06-14T23:38:48.723Z,14.20
2018-06-14T23:41:17.719Z,14.30
2018-06-14T23:43:46.530Z,14.40
2018-06-14T23:46:15.329Z,14.40
2018-06-14T23:48:44.164Z,14.40
2018-06-14T23:51:12.989Z,14.40
2018-06-14T23:53:41.764Z,14.40
2018-06-14T23:56:10.552Z,14.40
2018-06-14T23:58:39.441Z,14.40
